createdAt,value
2022-08-02T00:02:20.786Z,20.30
2022-08-02T00:21:06.599Z,20.50
2022-08-02T00:23:33.994Z,20.30
2022-08-02T00:26:21.362Z,20.50
2022-08-02T00:28:48.834Z,20.20
2022-08-02T00:31:16.412Z,20.10
2022-08-02T00:34:27.024Z,20.30
2022-08-02T00:57:27.023Z,20.10
2022-08-02T00:59:54.453Z,20.10
2022-08-02T01:02:24.140Z,20.10
2022-08-02T01:04:51.399Z,20.10
2022-08-02T01:07:20.591Z,20.20
2022-08-02T01:09:48.378Z,20.30
2022-08-02T01:12:16.101Z,20.10
2022-08-02T01:19:34.959Z,20.10
2022-08-02T01:23:02.032Z,20.10
2022-08-02T01:26:02.118Z,20.00
2022-08-02T01:28:36.330Z,19.80
2022-08-02T01:31:12.839Z,19.80
2022-08-02T01:33:48.710Z,19.90
2022-08-02T01:53:30.592Z,19.90
2022-08-02T01:56:00.154Z,19.90
2022-08-02T01:58:30.740Z,19.90
2022-08-02T02:00:59.944Z,19.90
2022-08-02T02:03:29.124Z,20.30
2022-08-02T02:05:58.697Z,20.20
2022-08-02T02:08:33.042Z,20.00
2022-08-02T02:13:41.912Z,19.80
2022-08-02T02:16:11.430Z,19.80
2022-08-02T02:18:43.178Z,19.80
2022-08-02T02:21:12.290Z,19.90
2022-08-02T02:23:39.624Z,19.70
2022-08-02T02:26:11.050Z,19.70
2022-08-02T02:35:30.098Z,19.60
2022-08-02T02:38:04.630Z,19.50
2022-08-02T02:40:40.328Z,19.30
2022-08-02T02:43:15.577Z,19.30
2022-08-02T02:45:48.768Z,19.30
2022-08-02T02:48:20.475Z,19.20
2022-08-02T03:23:23.653Z,19.20
2022-08-02T04:46:45.515Z,19.10
2022-08-02T05:07:22.121Z,18.70
2022-08-02T05:09:52.058Z,18.80
2022-08-02T05:12:26.012Z,19.00
2022-08-02T05:14:53.539Z,19.10
2022-08-02T05:17:21.094Z,19.10
2022-08-02T05:19:49.878Z,19.10
2022-08-02T05:22:19.255Z,19.10
2022-08-02T05:27:29.431Z,19.10
2022-08-02T05:29:57.849Z,19.20
2022-08-02T05:32:26.074Z,19.10
2022-08-02T05:34:54.489Z,19.10
2022-08-02T05:37:22.521Z,19.10
2022-08-02T05:39:55.623Z,19.10
2022-08-02T05:42:26.551Z,19.20
2022-08-02T05:44:59.152Z,19.20
2022-08-02T06:06:43.621Z,19.60
2022-08-02T06:12:44.629Z,19.80
2022-08-02T06:15:21.370Z,19.90
2022-08-02T06:17:50.822Z,19.70
2022-08-02T06:20:20.430Z,19.70
2022-08-02T06:23:38.706Z,19.90
2022-08-02T06:26:08.234Z,19.80
2022-08-02T06:28:38.039Z,20.00
2022-08-02T06:31:06.668Z,19.90
2022-08-02T06:36:52.867Z,19.90
2022-08-02T06:39:27.369Z,19.80
2022-08-02T06:42:00.127Z,19.70
2022-08-02T06:44:49.679Z,19.80
2022-08-02T06:47:24.341Z,19.80
2022-08-02T06:49:55.240Z,19.90
2022-08-02T06:52:28.262Z,20.00
2022-08-02T06:55:44.087Z,20.10
2022-08-02T07:04:20.349Z,20.40
2022-08-02T07:07:08.392Z,20.60
2022-08-02T07:16:39.038Z,21.00
2022-08-02T07:30:11.165Z,21.20
2022-08-02T07:33:01.389Z,21.30
2022-08-02T07:44:16.750Z,21.50
2022-08-02T07:47:27.207Z,21.80
2022-08-02T07:50:46.280Z,21.90
2022-08-02T07:53:13.641Z,21.70
2022-08-02T07:58:27.191Z,22.20
2022-08-02T08:00:56.131Z,22.30
2022-08-02T08:04:06.894Z,22.20
2022-08-02T08:09:36.379Z,22.40
2022-08-02T08:10:29.038Z,22.20
2022-08-02T08:12:57.482Z,22.90
2022-08-02T08:18:26.840Z,22.80
2022-08-02T08:20:57.549Z,23.50
2022-08-02T08:23:27.226Z,23.70
2022-08-02T08:26:06.360Z,23.60
2022-08-02T08:28:34.978Z,23.60
2022-08-02T08:31:20.030Z,23.90
2022-08-02T08:33:51.698Z,23.90
2022-08-02T08:36:30.442Z,24.10
2022-08-02T08:38:59.940Z,24.20
2022-08-02T08:50:20.111Z,25.00
2022-08-02T08:53:36.421Z,24.90
2022-08-02T08:57:00.638Z,25.10
2022-08-02T08:59:32.655Z,25.40
2022-08-02T09:02:19.700Z,25.50
2022-08-02T09:05:52.532Z,25.50
2022-08-02T09:08:31.593Z,25.60
2022-08-02T09:10:59.348Z,25.80
2022-08-02T09:13:39.098Z,25.50
2022-08-02T09:20:09.679Z,25.00
2022-08-02T09:22:37.697Z,25.40
2022-08-02T09:25:59.042Z,25.80
2022-08-02T09:28:34.540Z,26.10
2022-08-02T09:31:24.696Z,26.80
2022-08-02T09:34:43.600Z,27.00
2022-08-02T09:37:24.607Z,27.00
2022-08-02T09:39:52.210Z,27.20
2022-08-02T09:42:54.404Z,27.40
2022-08-02T09:45:40.171Z,26.90
2022-08-02T09:52:56.190Z,26.50
2022-08-02T09:55:24.323Z,26.50
2022-08-02T09:57:52.050Z,26.40
2022-08-02T10:00:37.211Z,26.80
2022-08-02T10:03:09.382Z,26.50
2022-08-02T10:05:55.785Z,26.50
2022-08-02T10:08:28.513Z,26.50
2022-08-02T10:19:05.248Z,27.70
2022-08-02T10:21:43.751Z,28.40
2022-08-02T10:24:47.789Z,28.90
2022-08-02T10:27:43.227Z,29.00
2022-08-02T10:30:17.961Z,29.30
2022-08-02T10:32:52.959Z,29.20
2022-08-02T10:36:06.636Z,29.30
2022-08-02T10:38:42.712Z,29.60
2022-08-02T10:41:13.679Z,29.70
2022-08-02T10:43:53.547Z,29.10
2022-08-02T10:46:51.837Z,28.90
2022-08-02T10:49:39.187Z,29.20
2022-08-02T10:52:46.259Z,29.60
2022-08-02T10:58:21.107Z,29.80
2022-08-02T11:00:55.116Z,29.80
2022-08-02T11:03:41.214Z,29.70
2022-08-02T11:06:25.045Z,29.40
2022-08-02T11:09:32.503Z,29.20
2022-08-02T11:12:04.722Z,28.90
2022-08-02T11:14:35.899Z,29.30
2022-08-02T11:22:25.964Z,29.50
2022-08-02T11:24:57.147Z,28.60
2022-08-02T11:27:39.481Z,28.90
2022-08-02T11:30:15.465Z,29.40
2022-08-02T11:33:31.467Z,29.90
2022-08-02T11:36:45.749Z,30.00
2022-08-02T11:39:48.500Z,29.60
2022-08-02T11:42:49.997Z,29.50
2022-08-02T11:45:30.407Z,30.00
2022-08-02T11:48:25.552Z,30.30
2022-08-02T11:51:21.838Z,30.30
2022-08-02T11:53:52.021Z,30.20
2022-08-02T12:01:35.259Z,30.20
2022-08-02T12:04:22.768Z,30.60
2022-08-02T12:07:03.568Z,30.80
2022-08-02T12:09:35.076Z,31.40
2022-08-02T12:12:05.965Z,31.60
2022-08-02T12:14:42.948Z,31.80
2022-08-02T12:17:30.062Z,32.00
2022-08-02T12:25:34.586Z,30.30
2022-08-02T12:28:18.221Z,29.20
2022-08-02T12:31:03.528Z,29.80
2022-08-02T12:33:48.029Z,30.60
2022-08-02T12:36:16.795Z,31.30
2022-08-02T12:38:51.754Z,30.90
2022-08-02T12:41:31.962Z,30.20
2022-08-02T12:49:18.827Z,29.30
2022-08-02T12:51:56.689Z,30.40
2022-08-02T12:54:30.905Z,30.90
2022-08-02T12:57:11.014Z,31.10
2022-08-02T12:59:40.306Z,31.00
2022-08-02T13:02:12.320Z,30.70
2022-08-02T13:04:50.379Z,30.60
2022-08-02T13:12:21.400Z,31.20
2022-08-02T13:14:49.671Z,31.90
2022-08-02T13:17:18.340Z,32.00
2022-08-02T13:19:47.358Z,32.20
2022-08-02T13:22:19.230Z,31.60
2022-08-02T13:24:55.992Z,30.70
2022-08-02T13:27:26.807Z,30.20
2022-08-02T13:32:42.019Z,30.60
2022-08-02T13:35:18.201Z,31.40
2022-08-02T13:38:24.794Z,31.70
2022-08-02T13:41:09.969Z,31.90
2022-08-02T13:43:53.566Z,31.70
2022-08-02T13:46:35.821Z,31.40
2022-08-02T13:49:49.744Z,31.40
2022-08-02T13:52:19.530Z,31.30
2022-08-02T13:57:41.521Z,30.60
2022-08-02T14:00:11.215Z,30.50
2022-08-02T14:02:40.644Z,30.60
2022-08-02T14:05:09.482Z,30.20
2022-08-02T14:07:45.862Z,30.20
2022-08-02T14:10:13.702Z,29.90
2022-08-02T14:12:42.729Z,29.60
2022-08-02T14:15:14.299Z,29.70
2022-08-02T14:22:45.061Z,29.90
2022-08-02T14:25:13.082Z,30.10
2022-08-02T14:27:42.304Z,30.20
2022-08-02T14:30:13.082Z,30.30
2022-08-02T14:32:41.723Z,30.40
2022-08-02T14:35:11.061Z,30.30
2022-08-02T14:37:39.811Z,29.80
2022-08-02T14:40:27.901Z,29.70
2022-08-02T14:48:03.251Z,29.80
2022-08-02T14:50:33.379Z,30.10
2022-08-02T14:53:01.799Z,29.70
2022-08-02T14:55:33.988Z,29.40
2022-08-02T14:58:07.018Z,29.10
2022-08-02T15:00:40.090Z,29.20
2022-08-02T15:03:11.148Z,29.60
2022-08-02T15:11:11.978Z,29.60
2022-08-02T15:14:26.029Z,29.80
2022-08-02T15:17:00.746Z,29.30
2022-08-02T15:20:23.409Z,29.10
2022-08-02T15:22:49.498Z,28.60
2022-08-02T15:25:18.456Z,28.50
2022-08-02T15:28:09.530Z,28.30
2022-08-02T15:30:35.110Z,28.70
2022-08-02T15:39:49.474Z,29.40
2022-08-02T15:47:27.754Z,29.90
2022-08-02T15:49:56.198Z,29.80
2022-08-02T15:52:26.650Z,30.10
2022-08-02T15:54:54.533Z,30.10
2022-08-02T15:57:22.668Z,30.10
2022-08-02T15:59:52.571Z,30.20
2022-08-02T16:03:02.123Z,30.00
2022-08-02T16:05:37.161Z,30.10
2022-08-02T16:13:32.812Z,29.80
2022-08-02T16:16:01.563Z,29.50
2022-08-02T16:18:29.283Z,29.20
2022-08-02T16:20:59.522Z,28.90
2022-08-02T16:24:01.406Z,29.00
2022-08-02T16:26:17.240Z,29.40
2022-08-02T16:28:46.779Z,29.50
2022-08-02T16:36:20.801Z,29.70
2022-08-02T16:38:51.371Z,29.90
2022-08-02T16:41:21.708Z,29.90
2022-08-02T16:43:49.870Z,30.30
2022-08-02T16:46:19.171Z,30.10
2022-08-02T16:48:50.878Z,30.40
2022-08-02T16:51:20.048Z,30.40
2022-08-02T16:54:00.455Z,30.40
2022-08-02T17:02:11.207Z,30.40
2022-08-02T17:04:25.160Z,30.30
2022-08-02T17:06:53.801Z,30.20
2022-08-02T17:10:03.776Z,29.60
2022-08-02T17:12:15.834Z,29.60
2022-08-02T17:14:54.789Z,29.30
2022-08-02T17:17:34.338Z,29.20
2022-08-02T17:25:54.819Z,29.00
2022-08-02T17:28:31.423Z,29.10
2022-08-02T17:31:01.829Z,28.90
2022-08-02T17:33:30.065Z,28.90
2022-08-02T17:35:59.612Z,28.90
2022-08-02T17:38:28.238Z,28.80
2022-08-02T17:40:56.989Z,29.10
2022-08-02T17:51:14.540Z,29.20
2022-08-02T17:54:03.140Z,29.10
2022-08-02T17:56:30.711Z,29.10
2022-08-02T17:59:10.770Z,29.20
2022-08-02T18:01:42.152Z,29.60
2022-08-02T18:04:27.718Z,29.70
2022-08-02T18:06:58.781Z,29.70
2022-08-02T18:12:07.452Z,29.60
2022-08-02T18:14:35.198Z,29.10
2022-08-02T18:17:14.351Z,29.10
2022-08-02T18:19:53.989Z,28.90
2022-08-02T18:22:26.544Z,28.90
2022-08-02T18:24:54.280Z,28.80
2022-08-02T18:27:23.716Z,28.90
2022-08-02T18:37:42.630Z,28.80
2022-08-02T18:40:13.991Z,28.70
2022-08-02T18:42:41.404Z,28.40
2022-08-02T18:45:19.976Z,28.10
2022-08-02T18:47:51.351Z,28.00
2022-08-02T18:50:19.221Z,27.70
2022-08-02T18:52:48.306Z,27.60
2022-08-02T18:58:20.427Z,27.40
2022-08-02T19:03:38.279Z,27.50
2022-08-02T19:06:06.835Z,27.80
2022-08-02T19:08:36.870Z,27.80
2022-08-02T19:11:04.820Z,27.70
2022-08-02T19:13:40.735Z,27.60
2022-08-02T19:21:15.790Z,27.70
2022-08-02T19:23:54.264Z,27.80
2022-08-02T19:26:22.538Z,27.90
2022-08-02T19:28:55.226Z,27.90
2022-08-02T19:31:22.298Z,27.70
2022-08-02T19:36:41.788Z,27.90
2022-08-02T19:42:01.572Z,27.80
2022-08-02T19:44:29.497Z,27.90
2022-08-02T19:47:19.124Z,27.70
2022-08-02T19:49:48.768Z,27.50
2022-08-02T19:52:21.247Z,27.50
2022-08-02T19:54:55.721Z,27.50
2022-08-02T19:57:28.609Z,27.50
2022-08-02T20:02:46.558Z,27.50
2022-08-02T20:05:24.058Z,27.40
2022-08-02T20:07:56.577Z,27.40
2022-08-02T20:10:24.975Z,27.30
2022-08-02T20:12:55.778Z,27.40
2022-08-02T20:15:23.488Z,27.30
2022-08-02T20:18:12.028Z,27.30
2022-08-02T20:25:45.551Z,27.20
2022-08-02T20:28:13.610Z,27.10
2022-08-02T20:30:42.858Z,27.10
2022-08-02T20:33:21.758Z,26.90
2022-08-02T20:35:51.713Z,26.90
2022-08-02T20:38:25.068Z,26.90
2022-08-02T20:40:59.548Z,26.90
2022-08-02T20:46:26.718Z,26.70
2022-08-02T20:48:57.506Z,26.60
2022-08-02T20:51:33.364Z,26.50
2022-08-02T20:54:02.481Z,26.40
2022-08-02T20:56:30.022Z,26.20
2022-08-02T20:59:03.686Z,26.20
2022-08-02T21:01:37.181Z,26.20
2022-08-02T21:06:44.851Z,26.30
2022-08-02T21:09:12.321Z,26.30
2022-08-02T21:11:42.192Z,26.30
2022-08-02T21:14:18.652Z,26.20
2022-08-02T21:16:46.361Z,26.30
2022-08-02T21:19:14.494Z,26.20
2022-08-02T21:21:41.870Z,26.20
2022-08-02T21:29:14.728Z,26.20
2022-08-02T21:34:31.341Z,26.00
2022-08-02T21:36:58.825Z,26.00
2022-08-02T21:39:26.229Z,25.90
2022-08-02T21:41:53.715Z,25.80
2022-08-02T21:44:22.948Z,25.80
2022-08-02T21:51:54.510Z,25.70
2022-08-02T21:54:22.489Z,25.60
2022-08-02T21:56:52.041Z,25.60
2022-08-02T21:59:25.229Z,25.40
2022-08-02T22:01:54.202Z,25.50
2022-08-02T22:04:25.251Z,25.60
2022-08-02T22:06:54.943Z,25.60
2022-08-02T22:17:51.542Z,25.70
2022-08-02T22:20:21.590Z,25.80
2022-08-02T22:22:50.588Z,25.70
2022-08-02T22:25:21.470Z,25.80
2022-08-02T22:28:13.290Z,25.70
2022-08-02T22:30:52.610Z,25.60
2022-08-02T22:33:42.309Z,25.50
2022-08-02T22:43:10.640Z,25.40
2022-08-02T22:45:38.305Z,25.30
2022-08-02T22:48:07.919Z,25.20
2022-08-02T22:50:35.741Z,25.20
2022-08-02T22:53:03.599Z,25.20
2022-08-02T22:55:32.480Z,25.20
2022-08-02T22:58:00.319Z,25.10
2022-08-02T22:58:46.371Z,27.40
2022-08-02T22:58:48.536Z,27.90
2022-08-02T22:59:02.910Z,26.20
2022-08-02T23:05:32.488Z,25.10
2022-08-02T23:07:59.840Z,25.10
2022-08-02T23:10:27.883Z,25.00
2022-08-02T23:12:58.688Z,25.20
2022-08-02T23:15:26.490Z,25.10
2022-08-02T23:18:12.807Z,25.10
2022-08-02T23:20:42.580Z,25.10
2022-08-02T23:26:00.880Z,25.20
2022-08-02T23:28:28.364Z,25.20
2022-08-02T23:30:56.101Z,25.20
2022-08-02T23:33:23.553Z,25.20
2022-08-02T23:35:51.038Z,25.00
2022-08-02T23:38:18.351Z,25.00
2022-08-02T23:40:46.430Z,24.90
2022-08-02T23:46:12.761Z,24.90
2022-08-02T23:48:40.061Z,24.80
2022-08-02T23:51:07.348Z,24.70
2022-08-02T23:53:35.131Z,24.70
2022-08-02T23:56:05.888Z,24.70
2022-08-02T23:58:33.900Z,24.70
